sensor_id;sensor_type;location;lat;lon;timestamp;pressure;altitude;pressure_sealevel;temperature;humidity
75460;BME280;64039;53.060;9.342;2023-05-10T00:01:32;100313.25;;;14.71;50.09
75460;BME280;64039;53.060;9.342;2023-05-10T00:03:57;100316.75;;;14.69;49.29
75460;BME280;64039;53.060;9.342;2023-05-10T00:06:23;100322.88;;;14.58;50.67
75460;BME280;64039;53.060;9.342;2023-05-10T00:08:48;100325.50;;;14.58;50.60
75460;BME280;64039;53.060;9.342;2023-05-10T00:11:14;100321.97;;;14.61;51.07
75460;BME280;64039;53.060;9.342;2023-05-10T00:13:39;100315.00;;;14.60;50.82
75460;BME280;64039;53.060;9.342;2023-05-10T00:16:05;100311.53;;;14.55;50.71
75460;BME280;64039;53.060;9.342;2023-05-10T00:18:30;100309.81;;;14.46;51.46
75460;BME280;64039;53.060;9.342;2023-05-10T00:20:56;100309.81;;;14.43;51.50
75460;BME280;64039;53.060;9.342;2023-05-10T00:23:21;100311.53;;;14.47;51.84
75460;BME280;64039;53.060;9.342;2023-05-10T00:25:47;100314.19;;;14.45;52.46
75460;BME280;64039;53.060;9.342;2023-05-10T00:28:12;100310.72;;;14.37;51.78
75460;BME280;64039;53.060;9.342;2023-05-10T00:30:38;100308.06;;;14.39;52.25
75460;BME280;64039;53.060;9.342;2023-05-10T00:33:03;100305.47;;;14.34;52.48
75460;BME280;64039;53.060;9.342;2023-05-10T00:35:28;100308.97;;;14.31;52.25
75460;BME280;64039;53.060;9.342;2023-05-10T00:37:54;100301.16;;;14.25;52.63
75460;BME280;64039;53.060;9.342;2023-05-10T00:40:19;100306.38;;;14.27;52.99
75460;BME280;64039;53.060;9.342;2023-05-10T00:42:46;100297.59;;;14.39;52.65
75460;BME280;64039;53.060;9.342;2023-05-10T00:45:11;100301.09;;;14.36;53.24
75460;BME280;64039;53.060;9.342;2023-05-10T00:47:37;100291.53;;;14.34;52.51
75460;BME280;64039;53.060;9.342;2023-05-10T00:50:02;100296.78;;;14.24;53.56
75460;BME280;64039;53.060;9.342;2023-05-10T00:52:30;100292.41;;;14.15;53.77
75460;BME280;64039;53.060;9.342;2023-05-10T00:54:55;100292.41;;;14.15;53.87
75460;BME280;64039;53.060;9.342;2023-05-10T00:57:22;100290.69;;;14.11;53.98
75460;BME280;64039;53.060;9.342;2023-05-10T00:59:48;100296.78;;;14.24;54.31
75460;BME280;64039;53.060;9.342;2023-05-10T01:02:13;100293.28;;;14.18;54.32
75460;BME280;64039;53.060;9.342;2023-05-10T01:04:39;100291.53;;;14.17;54.81
75460;BME280;64039;53.060;9.342;2023-05-10T01:07:05;100286.31;;;14.07;55.13
75460;BME280;64039;53.060;9.342;2023-05-10T01:09:31;100284.59;;;14.09;55.19
75460;BME280;64039;53.060;9.342;2023-05-10T01:11:58;100283.72;;;14.06;55.13
75460;BME280;64039;53.060;9.342;2023-05-10T01:14:24;100288.94;;;14.12;55.83
75460;BME280;64039;53.060;9.342;2023-05-10T01:16:50;100279.38;;;14.00;55.65
75460;BME280;64039;53.060;9.342;2023-05-10T01:19:22;100288.97;;;13.87;55.95
75460;BME280;64039;53.060;9.342;2023-05-10T01:22:12;100276.78;;;13.89;56.06
75460;BME280;64039;53.060;9.342;2023-05-10T01:35:41;100286.38;;;13.76;56.64
75460;BME280;64039;53.060;9.342;2023-05-10T01:38:22;100282.00;;;13.77;57.52
75460;BME280;64039;53.060;9.342;2023-05-10T01:41:08;100284.63;;;13.89;57.38
75460;BME280;64039;53.060;9.342;2023-05-10T01:43:55;100282.03;;;13.78;57.52
75460;BME280;64039;53.060;9.342;2023-05-10T01:46:33;100282.00;;;13.80;57.67
75460;BME280;64039;53.060;9.342;2023-05-10T01:49:01;100276.78;;;13.78;57.95
75460;BME280;64039;53.060;9.342;2023-05-10T01:51:32;100271.56;;;13.69;57.93
75460;BME280;64039;53.060;9.342;2023-05-10T01:54:02;100273.28;;;13.68;58.51
75460;BME280;64039;53.060;9.342;2023-05-10T01:56:29;100267.19;;;13.65;58.83
75460;BME280;64039;53.060;9.342;2023-05-10T01:58:56;100275.03;;;13.59;59.15
75460;BME280;64039;53.060;9.342;2023-05-10T02:01:24;100270.69;;;13.62;59.09
75460;BME280;64039;53.060;9.342;2023-05-10T02:03:51;100271.56;;;13.58;59.28
75460;BME280;64039;53.060;9.342;2023-05-10T02:06:20;100277.66;;;13.54;59.65
75460;BME280;64039;53.060;9.342;2023-05-10T02:08:47;100276.78;;;13.43;59.86
75460;BME280;64039;53.060;9.342;2023-05-10T02:11:14;100279.38;;;13.46;60.91
75460;BME280;64039;53.060;9.342;2023-05-10T02:13:41;100275.06;;;13.46;60.57
75460;BME280;64039;53.060;9.342;2023-05-10T02:16:09;100283.69;;;13.28;60.85
75460;BME280;64039;53.060;9.342;2023-05-10T02:18:35;100278.50;;;13.34;61.25
75460;BME280;64039;53.060;9.342;2023-05-10T02:21:02;100271.47;;;13.18;61.59
75460;BME280;64039;53.060;9.342;2023-05-10T02:23:28;100274.13;;;13.29;61.93
75460;BME280;64039;53.060;9.342;2023-05-10T02:25:54;100272.38;;;13.28;62.74
75460;BME280;64039;53.060;9.342;2023-05-10T02:28:23;100275.84;;;13.24;62.90
75460;BME280;64039;53.060;9.342;2023-05-10T02:30:51;100267.13;;;13.18;62.55
75460;BME280;64039;53.060;9.342;2023-05-10T02:33:17;100274.97;;;13.14;63.26
75460;BME280;64039;53.060;9.342;2023-05-10T02:35:45;100276.72;;;13.23;63.58
75460;BME280;64039;53.060;9.342;2023-05-10T02:38:12;100277.56;;;13.14;62.83
75460;BME280;64039;53.060;9.342;2023-05-10T02:40:40;100279.34;;;13.19;62.82
75460;BME280;64039;53.060;9.342;2023-05-10T02:43:09;100274.97;;;13.31;63.24
75460;BME280;64039;53.060;9.342;2023-05-10T02:45:38;100277.63;;;13.37;63.08
75460;BME280;64039;53.060;9.342;2023-05-10T02:48:04;100275.84;;;13.24;63.52
75460;BME280;64039;53.060;9.342;2023-05-10T02:50:32;100271.50;;;13.15;64.49
75460;BME280;64039;53.060;9.342;2023-05-10T02:53:06;100271.50;;;13.26;63.97
75460;BME280;64039;53.060;9.342;2023-05-10T02:55:39;100272.38;;;13.34;64.76
75460;BME280;64039;53.060;9.342;2023-05-10T02:58:05;100277.59;;;13.34;64.49
75460;BME280;64039;53.060;9.342;2023-05-10T03:00:31;100277.59;;;13.29;64.18
75460;BME280;64039;53.060;9.342;2023-05-10T03:02:57;100270.63;;;13.33;64.22
75460;BME280;64039;53.060;9.342;2023-05-10T03:05:23;100273.25;;;13.36;65.02
75460;BME280;64039;53.060;9.342;2023-05-10T03:07:48;100266.28;;;13.33;64.57
75460;BME280;64039;53.060;9.342;2023-05-10T03:10:15;100268.00;;;13.24;64.62
75460;BME280;64039;53.060;9.342;2023-05-10T03:13:07;100269.75;;;13.28;64.85
75460;BME280;64039;53.060;9.342;2023-05-10T03:16:07;100272.38;;;13.21;65.23
75460;BME280;64039;53.060;9.342;2023-05-10T03:21:10;100271.50;;;13.36;65.58
75460;BME280;64039;53.060;9.342;2023-05-10T03:23:47;100274.09;;;13.18;65.20
75460;BME280;64039;53.060;9.342;2023-05-10T03:26:23;100264.50;;;13.08;65.96
75460;BME280;64039;53.060;9.342;2023-05-10T03:28:52;100262.75;;;13.07;66.72
75460;BME280;64039;53.060;9.342;2023-05-10T03:31:18;100256.66;;;13.15;66.98
75460;BME280;64039;53.060;9.342;2023-05-10T03:33:50;100263.66;;;13.13;67.05
75460;BME280;64039;53.060;9.342;2023-05-10T03:36:15;100257.53;;;13.10;67.60
75460;BME280;64039;53.060;9.342;2023-05-10T03:38:41;100261.88;;;13.06;68.05
75460;BME280;64039;53.060;9.342;2023-05-10T03:41:07;100264.50;;;13.11;67.89
75460;BME280;64039;53.060;9.342;2023-05-10T03:43:32;100265.38;;;13.11;68.22
75460;BME280;64039;53.060;9.342;2023-05-10T03:45:58;100261.88;;;13.04;68.49
75460;BME280;64039;53.060;9.342;2023-05-10T03:48:23;100261.91;;;13.08;67.69
75460;BME280;64039;53.060;9.342;2023-05-10T03:50:49;100263.63;;;13.07;68.16
75460;BME280;64039;53.060;9.342;2023-05-10T03:53:15;100268.00;;;13.07;67.80
75460;BME280;64039;53.060;9.342;2023-05-10T03:55:40;100266.25;;;13.05;68.24
75460;BME280;64039;53.060;9.342;2023-05-10T03:58:06;100264.50;;;13.08;68.61
75460;BME280;64039;53.060;9.342;2023-05-10T04:00:31;100264.53;;;13.18;66.88
75460;BME280;64039;53.060;9.342;2023-05-10T04:02:57;100262.78;;;13.11;68.42
75460;BME280;64039;53.060;9.342;2023-05-10T04:05:23;100264.50;;;13.04;67.73
75460;BME280;64039;53.060;9.342;2023-05-10T04:07:48;100267.13;;;13.08;68.96
75460;BME280;64039;53.060;9.342;2023-05-10T04:10:15;100263.63;;;13.12;69.14
75460;BME280;64039;53.060;9.342;2023-05-10T04:12:41;100265.38;;;13.14;68.94
75460;BME280;64039;53.060;9.342;2023-05-10T04:15:07;100265.38;;;13.11;69.60
75460;BME280;64039;53.060;9.342;2023-05-10T04:17:33;100264.50;;;13.14;69.51
75460;BME280;64039;53.060;9.342;2023-05-10T04:19:58;100266.25;;;13.15;69.74
75460;BME280;64039;53.060;9.342;2023-05-10T04:22:24;100263.66;;;13.19;69.92
75460;BME280;64039;53.060;9.342;2023-05-10T04:24:49;100264.53;;;13.29;68.99
75460;BME280;64039;53.060;9.342;2023-05-10T04:27:15;100268.88;;;13.32;68.62
75460;BME280;64039;53.060;9.342;2023-05-10T04:29:40;100266.31;;;13.40;69.14
75460;BME280;64039;53.060;9.342;2023-05-10T04:32:06;100266.31;;;13.40;69.38
75460;BME280;64039;53.060;9.342;2023-05-10T04:34:32;100260.22;;;13.41;69.40
75460;BME280;64039;53.060;9.342;2023-05-10T04:36:59;100266.28;;;13.33;70.12
75460;BME280;64039;53.060;9.342;2023-05-10T04:39:25;100267.16;;;13.34;69.92
75460;BME280;64039;53.060;9.342;2023-05-10T04:41:50;100268.88;;;13.36;69.91
75460;BME280;64039;53.060;9.342;2023-05-10T04:44:16;100273.31;;;13.45;70.11
75460;BME280;64039;53.060;9.342;2023-05-10T04:46:41;100275.00;;;13.32;70.07
75460;BME280;64039;53.060;9.342;2023-05-10T04:49:07;100265.41;;;13.33;70.83
75460;BME280;64039;53.060;9.342;2023-05-10T04:51:33;100269.75;;;13.29;70.72
75460;BME280;64039;53.060;9.342;2023-05-10T04:53:58;100265.41;;;13.22;71.15
75460;BME280;64039;53.060;9.342;2023-05-10T04:56:24;100268.88;;;13.24;71.35
75460;BME280;64039;53.060;9.342;2023-05-10T04:58:49;100265.44;;;13.34;71.30
75460;BME280;64039;53.060;9.342;2023-05-10T05:01:15;100273.25;;;13.36;72.15
75460;BME280;64039;53.060;9.342;2023-05-10T05:03:40;100274.13;;;13.32;74.05
75460;BME280;64039;53.060;9.342;2023-05-10T05:06:06;100275.03;;;13.40;74.01
75460;BME280;64039;53.060;9.342;2023-05-10T05:08:32;100279.41;;;13.40;74.26
75460;BME280;64039;53.060;9.342;2023-05-10T05:10:57;100276.72;;;13.32;74.66
75460;BME280;64039;53.060;9.342;2023-05-10T05:13:23;100282.81;;;13.35;77.35
75460;BME280;64039;53.060;9.342;2023-05-10T05:15:48;100284.59;;;13.38;79.28
75460;BME280;64039;53.060;9.342;2023-05-10T05:18:14;100296.78;;;13.33;81.13
75460;BME280;64039;53.060;9.342;2023-05-10T05:20:39;100292.44;;;13.38;81.10
75460;BME280;64039;53.060;9.342;2023-05-10T05:23:05;100297.59;;;13.18;84.03
75460;BME280;64039;53.060;9.342;2023-05-10T05:25:31;100295.88;;;13.14;86.70
75460;BME280;64039;53.060;9.342;2023-05-10T05:27:57;100296.75;;;13.16;88.98
75460;BME280;64039;53.060;9.342;2023-05-10T05:30:23;100297.56;;;12.98;89.83
75460;BME280;64039;53.060;9.342;2023-05-10T05:32:48;100290.59;;;12.87;91.84
75460;BME280;64039;53.060;9.342;2023-05-10T05:35:13;100289.75;;;12.99;93.58
75460;BME280;64039;53.060;9.342;2023-05-10T05:37:39;100299.28;;;12.93;94.93
75460;BME280;64039;53.060;9.342;2023-05-10T05:40:05;100309.75;;;12.99;96.17
75460;BME280;64039;53.060;9.342;2023-05-10T05:42:31;100322.81;;;12.94;97.21
75460;BME280;64039;53.060;9.342;2023-05-10T05:44:57;100319.31;;;12.89;99.41
75460;BME280;64039;53.060;9.342;2023-05-10T05:47:22;100318.38;;;12.73;100.00
75460;BME280;64039;53.060;9.342;2023-05-10T05:49:48;100319.22;;;12.72;100.00
75460;BME280;64039;53.060;9.342;2023-05-10T05:52:13;100321.81;;;12.58;100.00
75460;BME280;64039;53.060;9.342;2023-05-10T05:54:39;100338.34;;;12.62;100.00
75460;BME280;64039;53.060;9.342;2023-05-10T05:57:05;100328.69;;;12.48;100.00
75460;BME280;64039;53.060;9.342;2023-05-10T05:59:30;100330.34;;;12.35;100.00
75460;BME280;64039;53.060;9.342;2023-05-10T06:01:55;100329.47;;;12.30;100.00
75460;BME280;64039;53.060;9.342;2023-05-10T06:04:21;100335.53;;;12.31;100.00
75460;BME280;64039;53.060;9.342;2023-05-10T06:06:46;100336.44;;;12.31;100.00
75460;BME280;64039;53.060;9.342;2023-05-10T06:09:12;100336.41;;;12.25;100.00
75460;BME280;64039;53.060;9.342;2023-05-10T06:11:37;100338.09;;;12.21;100.00
75460;BME280;64039;53.060;9.342;2023-05-10T06:14:03;100341.53;;;12.13;100.00
75460;BME280;64039;53.060;9.342;2023-05-10T06:16:30;100348.41;;;12.03;100.00
75460;BME280;64039;53.060;9.342;2023-05-10T06:18:56;100353.63;;;12.04;100.00
75460;BME280;64039;53.060;9.342;2023-05-10T06:21:21;100359.69;;;11.99;100.00
75460;BME280;64039;53.060;9.342;2023-05-10T06:23:47;100361.34;;;11.95;100.00
75460;BME280;64039;53.060;9.342;2023-05-10T06:26:12;100354.47;;;11.99;100.00
75460;BME280;64039;53.060;9.342;2023-05-10T06:28:39;100371.84;;;11.98;100.00
75460;BME280;64039;53.060;9.342;2023-05-10T06:31:04;100370.88;;;11.91;100.00
75460;BME280;64039;53.060;9.342;2023-05-10T06:33:30;100367.44;;;11.94;100.00
75460;BME280;64039;53.060;9.342;2023-05-10T06:35:55;100371.69;;;11.86;100.00
75460;BME280;64039;53.060;9.342;2023-05-10T06:38:21;100358.53;;;11.72;100.00
75460;BME280;64039;53.060;9.342;2023-05-10T06:40:46;100376.03;;;11.82;100.00
75460;BME280;64039;53.060;9.342;2023-05-10T06:43:12;100373.31;;;11.73;100.00
75460;BME280;64039;53.060;9.342;2023-05-10T06:45:37;100380.38;;;11.82;100.00
75460;BME280;64039;53.060;9.342;2023-05-10T06:48:03;100373.41;;;11.82;100.00
75460;BME280;64039;53.060;9.342;2023-05-10T06:50:28;100387.25;;;11.73;100.00
75460;BME280;64039;53.060;9.342;2023-05-10T06:52:54;100388.13;;;11.74;100.00
75460;BME280;64039;53.060;9.342;2023-05-10T06:55:21;100398.53;;;11.74;100.00
75460;BME280;64039;53.060;9.342;2023-05-10T06:57:46;100397.69;;;11.75;100.00
75460;BME280;64039;53.060;9.342;2023-05-10T07:00:13;100401.19;;;11.77;100.00
75460;BME280;64039;53.060;9.342;2023-05-10T07:02:38;100390.72;;;11.72;100.00
75460;BME280;64039;53.060;9.342;2023-05-10T07:05:04;100395.94;;;11.74;100.00
75460;BME280;64039;53.060;9.342;2023-05-10T07:07:30;100402.00;;;11.71;100.00
75460;BME280;64039;53.060;9.342;2023-05-10T07:09:55;100402.03;;;11.74;100.00
75460;BME280;64039;53.060;9.342;2023-05-10T07:12:23;100405.50;;;11.76;100.00
75460;BME280;64039;53.060;9.342;2023-05-10T07:14:48;100402.94;;;11.79;100.00
75460;BME280;64039;53.060;9.342;2023-05-10T07:17:14;100408.97;;;11.75;100.00
75460;BME280;64039;53.060;9.342;2023-05-10T07:19:39;100408.00;;;11.64;100.00
75460;BME280;64039;53.060;9.342;2023-05-10T07:22:05;100408.00;;;11.62;100.00
75460;BME280;64039;53.060;9.342;2023-05-10T07:24:31;100412.44;;;11.71;100.00
75460;BME280;64039;53.060;9.342;2023-05-10T07:26:57;100406.41;;;11.77;100.00
75460;BME280;64039;53.060;9.342;2023-05-10T07:29:22;100404.56;;;11.65;100.00
75460;BME280;64039;53.060;9.342;2023-05-10T07:31:48;100413.25;;;11.67;100.00
75460;BME280;64039;53.060;9.342;2023-05-10T07:34:13;100409.00;;;11.78;100.00
75460;BME280;64039;53.060;9.342;2023-05-10T07:36:39;100410.72;;;11.73;100.00
75460;BME280;64039;53.060;9.342;2023-05-10T07:39:04;100411.53;;;11.68;100.00
75460;BME280;64039;53.060;9.342;2023-05-10T07:41:30;100413.97;;;11.52;100.00
75460;BME280;64039;53.060;9.342;2023-05-10T07:43:56;100417.34;;;11.43;100.00
75460;BME280;64039;53.060;9.342;2023-05-10T07:46:21;100411.38;;;11.54;100.00
75460;BME280;64039;53.060;9.342;2023-05-10T07:48:46;100415.31;;;11.17;100.00
75460;BME280;64039;53.060;9.342;2023-05-10T07:51:12;100418.97;;;11.32;100.00
75460;BME280;64039;53.060;9.342;2023-05-10T07:53:38;100414.66;;;11.37;100.00
75460;BME280;64039;53.060;9.342;2023-05-10T07:56:25;100419.03;;;11.40;100.00
75460;BME280;64039;53.060;9.342;2023-05-10T07:58:53;100421.63;;;11.37;100.00
75460;BME280;64039;53.060;9.342;2023-05-10T08:01:20;100423.44;;;11.45;100.00
75460;BME280;64039;53.060;9.342;2023-05-10T08:03:46;100429.34;;;11.29;100.00
75460;BME280;64039;53.060;9.342;2023-05-10T08:06:11;100432.13;;;11.46;100.00
75460;BME280;64039;53.060;9.342;2023-05-10T08:08:37;100433.00;;;11.45;100.00
75460;BME280;64039;53.060;9.342;2023-05-10T08:11:03;100443.22;;;11.28;100.00
75460;BME280;64039;53.060;9.342;2023-05-10T08:13:29;100445.16;;;11.44;100.00
75460;BME280;64039;53.060;9.342;2023-05-10T08:15:54;100447.63;;;11.33;100.00
75460;BME280;64039;53.060;9.342;2023-05-10T08:18:20;100446.09;;;11.51;100.00
75460;BME280;64039;53.060;9.342;2023-05-10T08:20:46;100450.53;;;11.57;100.00
75460;BME280;64039;53.060;9.342;2023-05-10T08:23:14;100455.84;;;11.68;100.00
75460;BME280;64039;53.060;9.342;2023-05-10T08:25:40;100456.75;;;11.70;100.00
75460;BME280;64039;53.060;9.342;2023-05-10T08:28:05;100462.03;;;11.77;100.00
75460;BME280;64039;53.060;9.342;2023-05-10T08:30:31;100464.56;;;11.70;100.00
75460;BME280;64039;53.060;9.342;2023-05-10T08:32:56;100462.94;;;11.81;100.00
75460;BME280;64039;53.060;9.342;2023-05-10T08:35:22;100472.56;;;11.87;100.00
75460;BME280;64039;53.060;9.342;2023-05-10T08:37:47;100473.63;;;12.03;100.00
75460;BME280;64039;53.060;9.342;2023-05-10T08:40:14;100470.34;;;12.24;100.00
75460;BME280;64039;53.060;9.342;2023-05-10T08:42:43;100477.47;;;12.48;100.00
75460;BME280;64039;53.060;9.342;2023-05-10T08:45:11;100480.00;;;12.37;100.00
75460;BME280;64039;53.060;9.342;2023-05-10T08:47:37;100478.28;;;12.41;100.00
75460;BME280;64039;53.060;9.342;2023-05-10T08:50:03;100472.97;;;12.27;100.00
75460;BME280;64039;53.060;9.342;2023-05-10T08:52:30;100482.78;;;12.56;100.00
75460;BME280;64039;53.060;9.342;2023-05-10T08:54:56;100492.44;;;12.68;100.00
75460;BME280;64039;53.060;9.342;2023-05-10T08:57:22;100490.69;;;12.68;100.00
75460;BME280;64039;53.060;9.342;2023-05-10T08:59:47;100493.31;;;12.73;100.00
75460;BME280;64039;53.060;9.342;2023-05-10T09:02:13;100493.47;;;12.90;100.00
75460;BME280;64039;53.060;9.342;2023-05-10T09:04:39;100502.16;;;12.87;100.00
75460;BME280;64039;53.060;9.342;2023-05-10T09:07:06;100508.28;;;12.94;100.00
75460;BME280;64039;53.060;9.342;2023-05-10T09:09:32;100511.78;;;12.95;100.00
75460;BME280;64039;53.060;9.342;2023-05-10T09:11:58;100509.09;;;12.87;100.00
75460;BME280;64039;53.060;9.342;2023-05-10T09:14:24;100506.66;;;13.13;100.00
75460;BME280;64039;53.060;9.342;2023-05-10T09:16:50;100515.41;;;13.20;100.00
75460;BME280;64039;53.060;9.342;2023-05-10T09:19:16;100509.31;;;13.19;100.00
75460;BME280;64039;53.060;9.342;2023-05-10T09:21:41;100515.44;;;13.25;100.00
75460;BME280;64039;53.060;9.342;2023-05-10T09:24:07;100516.44;;;13.48;100.00
75460;BME280;64039;53.060;9.342;2023-05-10T09:26:34;100520.03;;;13.77;100.00
75460;BME280;64039;53.060;9.342;2023-05-10T09:29:01;100519.88;;;13.38;100.00
75460;BME280;64039;53.060;9.342;2023-05-10T09:31:47;100526.06;;;13.60;100.00
75460;BME280;64039;53.060;9.342;2023-05-10T09:34:19;100522.63;;;13.63;100.00
75460;BME280;64039;53.060;9.342;2023-05-10T09:37:12;100527.94;;;13.89;100.00
75460;BME280;64039;53.060;9.342;2023-05-10T09:39:37;100531.47;;;14.07;100.00
75460;BME280;64039;53.060;9.342;2023-05-10T09:42:08;100531.47;;;14.05;100.00
75460;BME280;64039;53.060;9.342;2023-05-10T09:44:34;100533.22;;;14.25;100.00
75460;BME280;64039;53.060;9.342;2023-05-10T09:47:03;100532.34;;;14.32;100.00
75460;BME280;64039;53.060;9.342;2023-05-10T09:49:29;100535.88;;;14.39;100.00
75460;BME280;64039;53.060;9.342;2023-05-10T09:52:05;100531.50;;;14.62;100.00
75460;BME280;64039;53.060;9.342;2023-05-10T09:54:31;100534.19;;;14.75;100.00
75460;BME280;64039;53.060;9.342;2023-05-10T09:56:57;100534.19;;;14.75;100.00
75460;BME280;64039;53.060;9.342;2023-05-10T09:59:25;100533.28;;;14.88;100.00
75460;BME280;64039;53.060;9.342;2023-05-10T10:01:52;100538.50;;;15.07;100.00
75460;BME280;64039;53.060;9.342;2023-05-10T10:04:19;100538.44;;;15.29;100.00
75460;BME280;64039;53.060;9.342;2023-05-10T10:06:45;100534.91;;;15.39;100.00
75460;BME280;64039;53.060;9.342;2023-05-10T10:09:11;100536.59;;;15.59;100.00
75460;BME280;64039;53.060;9.342;2023-05-10T10:11:37;100538.34;;;15.56;100.00
75460;BME280;64039;53.060;9.342;2023-05-10T10:14:04;100546.19;;;15.69;100.00
75460;BME280;64039;53.060;9.342;2023-05-10T10:16:30;100548.00;;;15.45;100.00
75460;BME280;64039;53.060;9.342;2023-05-10T10:18:56;100550.72;;;15.09;100.00
75460;BME280;64039;53.060;9.342;2023-05-10T10:21:23;100552.44;;;15.20;100.00
75460;BME280;64039;53.060;9.342;2023-05-10T10:23:49;100552.44;;;15.29;100.00
75460;BME280;64039;53.060;9.342;2023-05-10T10:26:16;100543.72;;;15.21;100.00
75460;BME280;64039;53.060;9.342;2023-05-10T10:29:12;100548.78;;;15.75;100.00
75460;BME280;64039;53.060;9.342;2023-05-10T10:31:47;100543.34;;;16.15;100.00
75460;BME280;64039;53.060;9.342;2023-05-10T10:34:26;100561.03;;;15.73;100.00
75460;BME280;64039;53.060;9.342;2023-05-10T10:36:54;100555.00;;;15.46;100.00
75460;BME280;64039;53.060;9.342;2023-05-10T10:39:20;100551.38;;;15.80;100.00
75460;BME280;64039;53.060;9.342;2023-05-10T10:41:51;100553.22;;;15.57;100.00
75460;BME280;64039;53.060;9.342;2023-05-10T10:44:33;100551.47;;;15.56;100.00
75460;BME280;64039;53.060;9.342;2023-05-10T10:49:25;100561.91;;;15.72;100.00
75460;BME280;64039;53.060;9.342;2023-05-10T10:52:23;100553.19;;;15.65;100.00
75460;BME280;64039;53.060;9.342;2023-05-10T10:54:52;100555.00;;;15.46;100.00
75460;BME280;64039;53.060;9.342;2023-05-10T10:57:19;100561.09;;;15.53;100.00
75460;BME280;64039;53.060;9.342;2023-05-10T10:59:47;100562.84;;;15.51;100.00
75460;BME280;64039;53.060;9.342;2023-05-10T11:05:25;100560.22;;;15.57;100.00
75460;BME280;64039;53.060;9.342;2023-05-10T11:08:02;100551.34;;;15.87;100.00
75460;BME280;64039;53.060;9.342;2023-05-10T11:10:32;100553.00;;;16.12;100.00
75460;BME280;64039;53.060;9.342;2023-05-10T11:13:05;100552.06;;;16.16;100.00
75460;BME280;64039;53.060;9.342;2023-05-10T11:15:33;100553.84;;;16.15;100.00
75460;BME280;64039;53.060;9.342;2023-05-10T11:17:59;100560.88;;;16.12;100.00
75460;BME280;64039;53.060;9.342;2023-05-10T11:20:28;100568.97;;;15.61;100.00
75460;BME280;64039;53.060;9.342;2023-05-10T11:23:10;100570.63;;;15.83;100.00
75460;BME280;64039;53.060;9.342;2023-05-10T11:25:44;100568.06;;;15.62;100.00
75460;BME280;64039;53.060;9.342;2023-05-10T11:28:12;100571.50;;;15.78;100.00
75460;BME280;64039;53.060;9.342;2023-05-10T11:30:39;100575.91;;;15.62;100.00
75460;BME280;64039;53.060;9.342;2023-05-10T11:33:08;100577.75;;;15.46;100.00
75460;BME280;64039;53.060;9.342;2023-05-10T11:35:38;100577.69;;;15.53;100.00
75460;BME280;64039;53.060;9.342;2023-05-10T11:38:08;100581.28;;;15.24;100.00
75460;BME280;64039;53.060;9.342;2023-05-10T11:40:34;100579.44;;;15.54;100.00
75460;BME280;64039;53.060;9.342;2023-05-10T11:43:00;100585.50;;;15.75;100.00
75460;BME280;64039;53.060;9.342;2023-05-10T11:45:26;100591.63;;;15.83;100.00
75460;BME280;64039;53.060;9.342;2023-05-10T11:47:55;100589.91;;;15.64;100.00
75460;BME280;64039;53.060;9.342;2023-05-10T11:50:20;100591.66;;;15.62;100.00
75460;BME280;64039;53.060;9.342;2023-05-10T11:52:51;100597.81;;;15.61;100.00
75460;BME280;64039;53.060;9.342;2023-05-10T11:55:17;100595.19;;;15.53;100.00
75460;BME280;64039;53.060;9.342;2023-05-10T11:57:42;100596.94;;;15.60;100.00
75460;BME280;64039;53.060;9.342;2023-05-10T12:00:10;100598.59;;;15.91;100.00
75460;BME280;64039;53.060;9.342;2023-05-10T12:02:36;100602.13;;;15.86;100.00
75460;BME280;64039;53.060;9.342;2023-05-10T12:05:02;100598.59;;;15.92;100.00
75460;BME280;64039;53.060;9.342;2023-05-10T12:07:28;100602.03;;;16.07;100.00
75460;BME280;64039;53.060;9.342;2023-05-10T12:10:10;100605.50;;;16.12;100.00
75460;BME280;64039;53.060;9.342;2023-05-10T12:12:47;100604.69;;;16.02;100.00
75460;BME280;64039;53.060;9.342;2023-05-10T12:15:20;100601.25;;;15.77;100.00
75460;BME280;64039;53.060;9.342;2023-05-10T12:17:47;100611.75;;;15.86;100.00
75460;BME280;64039;53.060;9.342;2023-05-10T12:20:17;100610.84;;;15.95;100.00
75460;BME280;64039;53.060;9.342;2023-05-10T12:22:50;100608.25;;;15.73;100.00
75460;BME280;64039;53.060;9.342;2023-05-10T12:25:16;100611.69;;;15.97;100.00
75460;BME280;64039;53.060;9.342;2023-05-10T12:27:54;100616.63;;;16.54;100.00
75460;BME280;64039;53.060;9.342;2023-05-10T12:30:31;100602.50;;;16.71;100.00
75460;BME280;64039;53.060;9.342;2023-05-10T12:33:01;100613.84;;;16.77;100.00
75460;BME280;64039;53.060;9.342;2023-05-10T12:35:30;100614.44;;;17.13;100.00
75460;BME280;64039;53.060;9.342;2023-05-10T12:37:56;100619.56;;;17.27;100.00
75460;BME280;64039;53.060;9.342;2023-05-10T12:40:22;100620.22;;;17.53;100.00
75460;BME280;64039;53.060;9.342;2023-05-10T12:42:47;100617.88;;;17.23;100.00
75460;BME280;64039;53.060;9.342;2023-05-10T12:45:14;100620.56;;;17.12;100.00
75460;BME280;64039;53.060;9.342;2023-05-10T12:47:40;100626.78;;;17.05;100.00
75460;BME280;64039;53.060;9.342;2023-05-10T12:50:06;100627.78;;;16.90;100.00
75460;BME280;64039;53.060;9.342;2023-05-10T12:52:32;100628.75;;;16.78;100.00
75460;BME280;64039;53.060;9.342;2023-05-10T12:54:58;100627.09;;;16.60;100.00
75460;BME280;64039;53.060;9.342;2023-05-10T12:57:24;100628.09;;;16.39;100.00
75460;BME280;64039;53.060;9.342;2023-05-10T12:59:50;100633.34;;;16.42;100.00
75460;BME280;64039;53.060;9.342;2023-05-10T13:02:15;100634.31;;;16.27;100.00
75460;BME280;64039;53.060;9.342;2023-05-10T13:04:43;100639.31;;;16.66;100.00
75460;BME280;64039;53.060;9.342;2023-05-10T13:07:09;100634.91;;;16.70;100.00